»·PEaware :: SWA1105 KPHX-KABQ

SWA1105 :: KPHX-KABQ

FLIGHT INFORMATION

Flight Status: Arrived
Operator:
Southwest Airlines
More flights by this operator :: More flights under this callsign
Pilot: Christian H. (16685)
Aircraft: BOEING 737-900
(B739)
More flights by this aircraft type
Origin: KPHX Phoenix Sky Harbor Intl
United States
Destination: KABQ Albuquerque Intl Sunport
United States
More flights between these airports :: More routes between these airports
Route: +LALUZ5 SJN CABNO KRKEE3
File this flight plan on PilotEdge
Remarks:
Altitude:
(Current/Filed)
22,000ft
Speed:
(Current/Filed)
455kts
Departed: 11-May-18 12:06 PM
Arrived: 11-May-18 01:00 PM
Distance/Time
Traveled:
285nm/0:54
Distance/Time
To Go:
Arrived

Flight Plot

Page will automatically refresh every two minutes.

Flight plan parsing failed; only flown route is shown


Map Options




Map Legend


Flown Route
Filed Route
Departure Airport
Arrival Airport
Navaid (VOR, NDB)
Fix

Horizontal Profiles

Position Reports

Time Latitude Longitude Heading Altitude Ground
Speed
11-May-18 11:20 33.438074 -111.994079 224 1138ft 0kts
11-May-18 11:21 33.438074 -111.994079 224 1138ft 0kts
11-May-18 11:22 33.438074 -111.994079 224 1138ft 0kts
11-May-18 11:23 33.438074 -111.994079 224 1138ft 0kts
11-May-18 11:24 33.438074 -111.994079 224 1138ft 0kts
11-May-18 11:25 33.438074 -111.994079 224 1138ft 0kts
11-May-18 11:26 33.438074 -111.994079 224 1138ft 0kts
11-May-18 11:27 33.438074 -111.994079 224 1138ft 0kts
11-May-18 11:28 33.438074 -111.994079 224 1138ft 0kts
11-May-18 11:29 33.438074 -111.994079 224 1138ft 0kts
11-May-18 11:30 33.438074 -111.994079 224 1138ft 0kts
11-May-18 11:31 33.438074 -111.994079 224 1138ft 0kts
11-May-18 11:32 33.438074 -111.994079 224 1138ft 0kts
11-May-18 11:33 33.438074 -111.994079 224 1138ft 0kts
11-May-18 11:34 33.438074 -111.994079 224 1138ft 0kts
11-May-18 11:35 33.438074 -111.994079 224 1138ft 0kts
11-May-18 11:36 33.438074 -111.994079 224 1138ft 0kts
11-May-18 11:37 33.438074 -111.994079 224 1138ft 0kts
11-May-18 11:38 33.438074 -111.994079 224 1138ft 0kts
11-May-18 11:39 33.438074 -111.994079 224 1138ft 0kts
11-May-18 11:40 33.438074 -111.994079 224 1138ft 0kts
11-May-18 11:41 33.438074 -111.994079 224 1138ft 0kts
11-May-18 11:42 33.438074 -111.994079 224 1138ft 0kts
11-May-18 11:43 33.438074 -111.994079 224 1138ft 0kts
11-May-18 11:44 33.438074 -111.994079 224 1138ft 0kts
11-May-18 11:45 33.438074 -111.994079 224 1138ft 0kts
11-May-18 11:46 33.438074 -111.994079 224 1138ft 0kts
11-May-18 11:47 33.438074 -111.994079 224 1138ft 0kts
11-May-18 11:48 33.438074 -111.994079 224 1138ft 0kts
11-May-18 11:49 33.438074 -111.994079 224 1138ft 0kts
11-May-18 11:50 33.438074 -111.994079 224 1138ft 0kts
11-May-18 11:51 33.438074 -111.994079 224 1138ft 0kts
11-May-18 11:52 33.438074 -111.994079 224 1138ft 0kts
11-May-18 11:53 33.438074 -111.994079 224 1138ft 0kts
11-May-18 11:54 33.438074 -111.994079 224 1138ft 0kts
11-May-18 11:55 33.438074 -111.994079 224 1138ft 0kts
11-May-18 11:56 33.438074 -111.994079 224 1138ft 0kts
11-May-18 11:57 33.438074 -111.994079 224 1139ft 0kts
11-May-18 11:58 33.438278 -111.993744 261 1139ft 2kts
11-May-18 11:59 33.438058 -111.993298 342 1139ft 2kts
11-May-18 12:00 33.437891 -111.993278 358 1138ft 0kts
11-May-18 12:01 33.437891 -111.993278 358 1138ft 0kts
11-May-18 12:02 33.437891 -111.993278 358 1138ft 0kts
11-May-18 12:03 33.438859 -111.993239 44 1139ft 5kts
11-May-18 12:04 33.439801 -111.992289 0 1138ft 0kts
11-May-18 12:05 33.440478 -111.992291 1 1139ft 9kts
11-May-18 12:06 33.440842 -112.005474 269 1139ft 144kts
11-May-18 12:07 33.441481 -112.063925 270 2603ft 236kts
11-May-18 12:08 33.464292 -112.131041 323 4982ft 276kts
11-May-18 12:09 33.523392 -112.168130 327 7344ft 274kts
11-May-18 12:10 33.596666 -112.175011 1 9935ft 305kts
11-May-18 12:11 33.663631 -112.118058 48 12516ft 346kts
11-May-18 12:12 33.727372 -112.031688 48 15157ft 367kts
11-May-18 12:13 33.746006 -111.915848 98 17846ft 381kts
11-May-18 12:14 33.735006 -111.802535 98 20260ft 389kts
11-May-18 12:15 33.724080 -111.680208 97 22720ft 379kts
11-May-18 12:16 33.713455 -111.559181 97 22804ft 374kts
11-May-18 12:17 33.702588 -111.435603 97 22822ft 389kts
11-May-18 12:18 33.690681 -111.299169 94 22812ft 444kts
11-May-18 12:19 33.725515 -111.156288 65 22862ft 458kts
11-May-18 12:20 33.775877 -111.016765 65 22967ft 457kts
11-May-18 12:21 33.825757 -110.877093 66 22968ft 457kts
11-May-18 12:22 33.875184 -110.737652 66 22995ft 458kts
11-May-18 12:23 33.924491 -110.597799 66 22997ft 458kts
11-May-18 12:24 33.973456 -110.458176 66 22999ft 458kts
11-May-18 12:25 34.022070 -110.318897 66 22993ft 458kts
11-May-18 12:26 34.069326 -110.183057 66 22994ft 458kts
11-May-18 12:27 34.116967 -110.045426 66 22993ft 458kts
11-May-18 12:28 34.164447 -109.907655 67 22991ft 460kts
11-May-18 12:29 34.212452 -109.767658 67 22969ft 460kts
11-May-18 12:30 34.259725 -109.629011 66 22942ft 459kts
11-May-18 12:31 34.307129 -109.489485 67 22943ft 464kts
11-May-18 12:32 34.354956 -109.347973 68 22943ft 464kts
11-May-18 12:33 34.402328 -109.207355 68 22938ft 464kts
11-May-18 12:34 34.436068 -109.062019 83 22939ft 462kts
11-May-18 12:35 34.454112 -108.915428 83 22939ft 462kts
11-May-18 12:36 34.472701 -108.763824 82 22941ft 459kts
11-May-18 12:37 34.491240 -108.612508 83 22942ft 462kts
11-May-18 12:38 34.511627 -108.460916 79 22998ft 462kts
11-May-18 12:39 34.536841 -108.313293 79 22992ft 462kts
11-May-18 12:40 34.562286 -108.164158 79 22991ft 460kts
11-May-18 12:41 34.586001 -108.024350 80 22583ft 419kts
11-May-18 12:42 34.608745 -107.889074 80 21584ft 411kts
11-May-18 12:43 34.640579 -107.760124 62 21003ft 407kts
11-May-18 12:44 34.693036 -107.639852 62 20895ft 408kts
11-May-18 12:45 34.745614 -107.518397 62 20829ft 411kts
11-May-18 12:46 34.797022 -107.398778 62 19417ft 401kts
11-May-18 12:47 34.846428 -107.283261 63 18621ft 397kts
11-May-18 12:48 34.894901 -107.166843 64 17157ft 387kts
11-May-18 12:49 34.953030 -107.061169 53 15681ft 377kts
11-May-18 12:50 35.010875 -106.963053 54 13689ft 342kts
11-May-18 12:51 35.063653 -106.872628 55 12271ft 328kts
11-May-18 12:52 35.112921 -106.787798 55 10938ft 310kts
11-May-18 12:53 35.157802 -106.710245 56 9725ft 291kts
11-May-18 12:54 35.198367 -106.639922 58 8995ft 261kts
11-May-18 12:55 35.180207 -106.577448 151 8715ft 206kts
11-May-18 12:56 35.134839 -106.546707 155 7264ft 197kts
11-May-18 12:57 35.092347 -106.519429 155 6892ft 165kts
11-May-18 12:58 35.053712 -106.517942 234 6515ft 167kts
11-May-18 12:59 35.044249 -106.567987 264 5546ft 177kts
11-May-18 13:00 35.044155 -106.598992 271 5332ft 26kts

Navigation Log

Ident Type
Flight plan parsing failed, navigation log unavailable